Schedule Details


Flight Number: CTN470
Departure: Franjo Tudman (LDZA) at 09:00
Arrival: Charles-de-gaulle (LFPG) at 11:05
Route: PODET DCT TIBRO/N0453F380 UY9 NAXAV UZ613 RONAG UL613 HOC UL856 MOROK/N0454F360 UL856 PENDU/N0459F330 UL856 GIVRI/N0458F320 UM982 TINIL

Weather Information
LDZA 162330Z VRB02KT CAVOK M03/M05 Q1020 NOSIG
LFPG 162330Z 22010KT 200V280 8000 -RA FEW009 BKN031 07/07 Q1013 NOSIG
Schedule Frequency

Route Map